createdAt,value
2022-09-20T00:00:11.716Z,1000.2
2022-09-20T00:01:12.722Z,1000.2
2022-09-20T00:02:13.655Z,1000.2
2022-09-20T00:03:14.616Z,1000.2
2022-09-20T00:04:15.647Z,1000.2
2022-09-20T00:05:17.807Z,1000.2
2022-09-20T00:06:19.753Z,1000.2
2022-09-20T00:07:21.695Z,1000.2
2022-09-20T00:08:22.654Z,1000.1
2022-09-20T00:09:23.678Z,1000.1
2022-09-20T00:10:24.683Z,1000.5
2022-09-20T00:11:25.660Z,1000.3
2022-09-20T00:12:26.695Z,1000.2
2022-09-20T00:13:27.675Z,1000.2
2022-09-20T00:14:28.658Z,1000.2
2022-09-20T00:15:29.677Z,1000.2
2022-09-20T00:16:30.803Z,1000.2
2022-09-20T00:17:32.656Z,1000.2
2022-09-20T00:18:33.695Z,1000.2
2022-09-20T00:19:34.675Z,1000.2
2022-09-20T00:20:35.656Z,1000.1
2022-09-20T00:21:36.645Z,1000.1
2022-09-20T00:22:37.575Z,1000.1
2022-09-20T00:23:38.656Z,1000.2
2022-09-20T00:24:39.697Z,999.6
2022-09-20T00:25:40.575Z,1000.1
2022-09-20T00:26:41.663Z,1000.2
2022-09-20T00:27:42.656Z,1000.2
2022-09-20T00:28:43.615Z,1000.2
2022-09-20T00:29:44.580Z,1000.2
2022-09-20T00:30:45.695Z,1000.3
2022-09-20T00:31:47.682Z,1000.2
2022-09-20T00:32:48.856Z,1000.3
2022-09-20T00:33:50.595Z,1000.3
2022-09-20T00:34:51.655Z,1000.3
2022-09-20T00:35:52.701Z,1000.3
2022-09-20T00:36:54.627Z,1000.3
2022-09-20T00:37:55.673Z,1000.3
2022-09-20T00:38:57.696Z,1000.3
2022-09-20T00:39:59.792Z,1000.4
2022-09-20T00:41:01.715Z,1000.3
2022-09-20T00:42:03.715Z,1000.3
2022-09-20T00:43:05.683Z,1000.4
2022-09-20T00:44:07.668Z,1000.3
2022-09-20T00:45:09.672Z,1000.3
2022-09-20T00:46:11.678Z,1000.3
2022-09-20T00:47:12.685Z,1000.3
2022-09-20T00:48:13.635Z,1000.3
2022-09-20T00:49:14.696Z,1000.3
2022-09-20T00:50:15.695Z,1000.3
2022-09-20T00:51:16.616Z,1000.3
2022-09-20T00:52:17.689Z,999.3
2022-09-20T00:53:18.816Z,1000
2022-09-20T00:54:20.890Z,1000.3
2022-09-20T00:55:21.695Z,1000.3
2022-09-20T00:56:22.655Z,1000.3
2022-09-20T00:57:23.711Z,1000.2
2022-09-20T00:58:24.598Z,999.6
2022-09-20T00:59:25.641Z,1000.1
2022-09-20T01:00:26.635Z,1000.2
2022-09-20T01:04:19.696Z,1000.2
2022-09-20T01:05:20.694Z,1000.2
2022-09-20T01:06:21.674Z,1000.3
2022-09-20T01:07:22.764Z,1000.3
2022-09-20T01:08:24.612Z,1000.2
2022-09-20T01:09:25.655Z,1000.2
2022-09-20T01:10:26.634Z,1000.3
2022-09-20T01:11:27.655Z,1000.3
2022-09-20T01:12:28.722Z,1000.3
2022-09-20T01:13:29.655Z,1000.3
2022-09-20T01:14:30.675Z,1000.3
2022-09-20T01:15:31.624Z,1000.3
2022-09-20T01:16:32.742Z,1000.3
2022-09-20T01:17:33.655Z,1000.3
2022-09-20T01:18:34.594Z,1000.3
2022-09-20T01:19:35.642Z,1000.3
2022-09-20T01:20:36.698Z,1000.3
2022-09-20T01:21:37.694Z,1000.3
2022-09-20T01:22:38.772Z,1000.2
2022-09-20T01:23:39.694Z,1000.3
2022-09-20T01:24:40.695Z,1000.3
2022-09-20T01:25:41.694Z,1000.3
2022-09-20T01:26:42.714Z,1000.3
2022-09-20T01:27:43.638Z,1000.3
2022-09-20T01:28:44.675Z,1000.2
2022-09-20T01:29:45.695Z,1000.2
2022-09-20T01:30:47.236Z,1000.2
2022-09-20T01:31:48.825Z,1000.2
2022-09-20T01:32:50.715Z,1000.2
2022-09-20T01:33:51.676Z,1000.2
2022-09-20T01:34:52.678Z,1000.2
2022-09-20T01:35:53.694Z,1000.2
2022-09-20T01:36:54.735Z,1000.2
2022-09-20T01:37:55.744Z,1000.2
2022-09-20T01:38:57.862Z,1000.2
2022-09-20T01:39:59.686Z,1000.2
2022-09-20T01:41:00.674Z,1000.2
2022-09-20T01:42:01.779Z,1000.3
2022-09-20T01:43:03.698Z,1000.3
2022-09-20T01:44:04.695Z,1000.2
2022-09-20T01:45:05.723Z,1000.2
2022-09-20T01:46:06.748Z,1000.3
2022-09-20T01:47:07.755Z,1000.3
2022-09-20T01:48:08.713Z,1000.3
2022-09-20T01:49:09.715Z,1000.3
2022-09-20T01:50:10.695Z,1000.3
2022-09-20T01:51:11.714Z,1000.3
2022-09-20T01:52:12.785Z,1000.3
2022-09-20T01:53:13.659Z,1000.3
2022-09-20T01:54:14.694Z,1000.3
2022-09-20T01:55:15.702Z,1000.2
2022-09-20T01:56:16.722Z,1000.2
2022-09-20T01:57:17.675Z,1000.3
2022-09-20T01:58:18.937Z,1000.2
2022-09-20T01:59:23.922Z,1000.3
2022-09-20T02:00:21.734Z,1000.3
2022-09-20T02:01:22.740Z,1000.3
2022-09-20T02:02:23.730Z,1000.3
2022-09-20T02:03:24.719Z,1000.3
2022-09-20T02:04:25.735Z,1000.3
2022-09-20T02:05:26.694Z,1000.3
2022-09-20T02:06:27.674Z,1000.3
2022-09-20T02:07:28.695Z,1000.3
2022-09-20T02:08:29.783Z,1000.3
2022-09-20T02:09:30.794Z,1000.3
2022-09-20T02:10:31.794Z,1000.3
2022-09-20T02:11:32.716Z,1000.3
2022-09-20T02:12:33.953Z,1000.3
2022-09-20T02:13:34.630Z,1000.3
2022-09-20T02:14:35.775Z,1000.3
2022-09-20T02:15:37.842Z,1000.3
2022-09-20T02:16:39.830Z,1000.3
2022-09-20T02:17:40.715Z,1000.4
2022-09-20T02:18:41.674Z,1000.4
2022-09-20T02:19:42.765Z,1000.4
2022-09-20T02:20:43.794Z,1000.4
2022-09-20T02:21:44.696Z,1000.4
2022-09-20T02:22:45.674Z,999.8
2022-09-20T02:23:46.799Z,1000.2
2022-09-20T02:24:48.723Z,1000.4
2022-09-20T02:25:49.762Z,1000.4
2022-09-20T02:26:50.714Z,1000.4
2022-09-20T02:27:51.750Z,1000.4
2022-09-20T02:28:52.712Z,1000.4
2022-09-20T02:29:53.722Z,1000.5
2022-09-20T02:30:54.718Z,1000.4
2022-09-20T02:31:55.754Z,1000.4
2022-09-20T02:32:56.715Z,1000.4
2022-09-20T02:33:57.635Z,1000.5
2022-09-20T02:34:58.702Z,1000.5
2022-09-20T02:35:59.715Z,1000.5
2022-09-20T02:37:00.762Z,1000.5
2022-09-20T02:38:01.714Z,1000.5
2022-09-20T02:39:02.792Z,1000.5
2022-09-20T02:40:04.789Z,1000.5
2022-09-20T02:41:05.782Z,1000.5
2022-09-20T02:42:06.714Z,1000.5
2022-09-20T02:43:07.761Z,1000.5
2022-09-20T02:44:08.781Z,1000.5
2022-09-20T02:45:09.762Z,1000.5
2022-09-20T02:46:10.890Z,1000.5
2022-09-20T02:47:12.767Z,1000.5
2022-09-20T02:48:14.737Z,1000.6
2022-09-20T02:49:15.714Z,1000.6
2022-09-20T02:50:16.715Z,1000.6
2022-09-20T02:51:17.714Z,1000.6
2022-09-20T02:52:18.735Z,1000.6
2022-09-20T02:53:19.734Z,1000.6
2022-09-20T02:54:20.724Z,1000.6
2022-09-20T02:55:21.694Z,1000.6
2022-09-20T02:56:22.763Z,1000.6
2022-09-20T02:57:23.814Z,1000.6
2022-09-20T02:58:24.716Z,1000.7
2022-09-20T02:59:25.776Z,1000.7
2022-09-20T03:00:26.735Z,1000.7
2022-09-20T03:01:27.783Z,1000.7
2022-09-20T03:02:28.856Z,1000.8
2022-09-20T03:03:30.715Z,1000.7
2022-09-20T03:04:31.755Z,1000.7
2022-09-20T03:05:32.754Z,1000.7
2022-09-20T03:06:33.754Z,1000.6
2022-09-20T03:07:34.782Z,1000.6
2022-09-20T03:08:35.794Z,1000.6
2022-09-20T03:09:36.777Z,1000.7
2022-09-20T03:10:37.802Z,1000.7
2022-09-20T03:11:39.775Z,1000.7
2022-09-20T03:12:40.720Z,1000.7
2022-09-20T03:13:41.757Z,1000.7
2022-09-20T03:14:42.814Z,1000.7
2022-09-20T03:15:43.737Z,1000.7
2022-09-20T03:16:47.523Z,1000.7
2022-09-20T03:17:45.714Z,1000.7
2022-09-20T03:18:46.754Z,1000.6
2022-09-20T03:19:47.673Z,1000.4
2022-09-20T03:20:48.664Z,1000.6
2022-09-20T03:21:49.694Z,1000.7
2022-09-20T03:22:50.734Z,1000.7
2022-09-20T03:23:51.775Z,1000.7
2022-09-20T03:24:52.819Z,1000.7
2022-09-20T03:25:54.774Z,1000.8
2022-09-20T03:26:56.716Z,1000.8
2022-09-20T03:27:57.736Z,1000.7
2022-09-20T03:28:58.776Z,1000.8
2022-09-20T03:30:00.754Z,1000.5
2022-09-20T03:31:02.814Z,1000.5
2022-09-20T03:32:04.768Z,1000.7
2022-09-20T03:33:05.775Z,1000.8
2022-09-20T03:34:07.817Z,1000.8
2022-09-20T03:35:09.754Z,1000.8
2022-09-20T03:36:10.814Z,1000.8
2022-09-20T03:37:11.776Z,1000.8
2022-09-20T03:38:12.775Z,1000.7
2022-09-20T03:39:13.854Z,1000.8
2022-09-20T03:40:15.921Z,1000.7
2022-09-20T03:41:17.774Z,1000.8
2022-09-20T03:42:18.773Z,1000.7
2022-09-20T03:43:19.735Z,1000.8
2022-09-20T03:44:20.814Z,1000.9
2022-09-20T03:45:21.775Z,1000.8
2022-09-20T03:46:22.925Z,1000.8
2022-09-20T03:47:24.917Z,1000.8
2022-09-20T03:48:26.814Z,1000.8
2022-09-20T03:49:28.855Z,1000.8
2022-09-20T03:50:30.775Z,1000.8
2022-09-20T03:51:34.236Z,1000.8
2022-09-20T03:52:33.794Z,1000.8
2022-09-20T03:53:34.755Z,1000.8
2022-09-20T03:54:35.778Z,1000.8
2022-09-20T03:55:36.839Z,1000.9
2022-09-20T03:56:37.795Z,1000.8
2022-09-20T03:57:38.775Z,1000.8
2022-09-20T03:58:39.794Z,1000.8
2022-09-20T03:59:40.755Z,1000.8
2022-09-20T04:00:41.828Z,1000.8
2022-09-20T04:01:42.754Z,1000.8
2022-09-20T04:02:43.863Z,1000.8
2022-09-20T04:03:44.814Z,1000.9
2022-09-20T04:04:46.764Z,1000.9
2022-09-20T04:05:47.740Z,1000.8
2022-09-20T04:06:48.755Z,1000.9
2022-09-20T04:07:49.774Z,1000.9
2022-09-20T04:08:50.774Z,1000.9
2022-09-20T04:09:51.774Z,1000.9
2022-09-20T04:10:52.818Z,1000.9
2022-09-20T04:11:53.774Z,1000.9
2022-09-20T04:12:54.784Z,1000.9
2022-09-20T04:13:55.775Z,1000.9
2022-09-20T04:14:56.758Z,1000.9
2022-09-20T04:15:57.754Z,1000.9
2022-09-20T04:16:58.875Z,1000.9
2022-09-20T04:17:59.756Z,1000.9
2022-09-20T04:19:00.783Z,1000.9
2022-09-20T04:20:01.834Z,1000.9
2022-09-20T04:21:02.794Z,1000.9
2022-09-20T04:22:03.802Z,1000.9
2022-09-20T04:23:04.834Z,1000.9
2022-09-20T04:24:05.754Z,1000.9
2022-09-20T04:25:06.816Z,1000.9
2022-09-20T04:26:07.819Z,1000.9
2022-09-20T04:27:08.835Z,1001
2022-09-20T04:28:09.775Z,1001
2022-09-20T04:29:10.754Z,1001
2022-09-20T04:30:11.797Z,1000.9
2022-09-20T04:31:12.755Z,1000.9
2022-09-20T04:32:13.854Z,1001
2022-09-20T04:33:14.814Z,1001
2022-09-20T04:34:15.734Z,1001
2022-09-20T04:35:16.777Z,1001
2022-09-20T04:36:17.834Z,1001
2022-09-20T04:37:18.775Z,1001
2022-09-20T04:38:19.814Z,1001
2022-09-20T04:39:21.835Z,1001
2022-09-20T04:40:22.970Z,1001
2022-09-20T04:41:23.776Z,1001.1
2022-09-20T04:45:22.808Z,1001
2022-09-20T04:46:24.722Z,1001
2022-09-20T04:48:02.638Z,1001.1
2022-09-20T04:49:03.591Z,1001.1
2022-09-20T04:50:06.438Z,1001
2022-09-20T04:51:09.731Z,1001
2022-09-20T04:52:26.732Z,1001
2022-09-20T04:53:28.628Z,1001.1
2022-09-20T04:54:29.612Z,1001.1
2022-09-20T04:55:30.631Z,1001.1
2022-09-20T04:56:31.635Z,1001.2
2022-09-20T04:57:32.679Z,1001.2
2022-09-20T04:58:34.570Z,1001.2
2022-09-20T04:59:35.772Z,1001.2
2022-09-20T05:00:37.651Z,1001.2
2022-09-20T05:01:39.656Z,1001.2
2022-09-20T05:02:40.641Z,1001.2
2022-09-20T05:03:42.632Z,1001.2
2022-09-20T05:04:43.598Z,1001.3
2022-09-20T05:05:44.611Z,1001.2
2022-09-20T05:06:45.687Z,1001.3
2022-09-20T05:07:47.689Z,1001.3
2022-09-20T05:08:49.671Z,1001.3
2022-09-20T05:09:51.671Z,1001.3
2022-09-20T05:10:53.599Z,1001.3
2022-09-20T05:11:54.616Z,1001
2022-09-20T05:12:55.673Z,1001.2
2022-09-20T05:13:56.650Z,1001.2
2022-09-20T05:14:57.593Z,1001.3
2022-09-20T05:15:58.712Z,1001.3
2022-09-20T05:17:00.698Z,1000.8
2022-09-20T05:18:01.738Z,1001.3
2022-09-20T05:19:03.537Z,1001.4
2022-09-20T05:20:04.627Z,1001.4
2022-09-20T05:21:05.553Z,1001.4
2022-09-20T05:22:06.615Z,1001.4
2022-09-20T05:23:07.606Z,1001.4
2022-09-20T05:24:09.582Z,1001.2
2022-09-20T05:25:10.589Z,1001.4
2022-09-20T05:26:11.622Z,1001.4
2022-09-20T05:27:12.598Z,1001.5
2022-09-20T05:28:13.599Z,1001.5
2022-09-20T05:29:14.612Z,1001.5
2022-09-20T05:30:15.671Z,1001.5
2022-09-20T05:31:16.613Z,1001.6
2022-09-20T05:32:17.609Z,1001.5
2022-09-20T05:33:19.651Z,1001.1
2022-09-20T05:34:20.671Z,1001.5
2022-09-20T05:35:21.731Z,1001.5
2022-09-20T05:36:23.600Z,1001.6
2022-09-20T05:37:24.571Z,1001.6
2022-09-20T05:38:25.717Z,1001.6
2022-09-20T05:39:26.594Z,1001.6
2022-09-20T05:40:27.730Z,1001.6
2022-09-20T05:41:29.711Z,1001.7
2022-09-20T05:42:30.675Z,1001.7
2022-09-20T05:43:31.671Z,1001.6
2022-09-20T05:44:32.691Z,1001.6
2022-09-20T05:45:35.131Z,1001.6
2022-09-20T05:46:36.611Z,1001.6
2022-09-20T05:47:38.631Z,1001.6
2022-09-20T05:48:39.725Z,1001.6
2022-09-20T05:49:40.660Z,1001.6
2022-09-20T05:50:41.639Z,1001.6
2022-09-20T05:51:42.631Z,1001.6
2022-09-20T05:52:43.694Z,1001.6
2022-09-20T05:53:44.631Z,1001.7
2022-09-20T05:54:45.592Z,1001.3
2022-09-20T05:55:46.631Z,1001.5
2022-09-20T05:56:47.582Z,1001.6
2022-09-20T05:57:49.634Z,1001.6
2022-09-20T05:58:50.671Z,1001.6
2022-09-20T05:59:51.591Z,1001.7
2022-09-20T06:00:52.651Z,1001.7
2022-09-20T06:01:53.651Z,1001.7
2022-09-20T06:02:54.612Z,1001.7
2022-09-20T06:03:55.565Z,1001.7
2022-09-20T06:04:56.619Z,1001.7
2022-09-20T06:05:57.578Z,1001.7
2022-09-20T06:06:58.618Z,1001.7
2022-09-20T06:07:59.573Z,1001.6
2022-09-20T06:09:00.631Z,1001.6
2022-09-20T06:10:01.731Z,1001.6
2022-09-20T06:11:02.590Z,1001.7
2022-09-20T06:12:03.721Z,1001.6
2022-09-20T06:13:04.675Z,1001.6
2022-09-20T06:14:05.779Z,1001.6
2022-09-20T06:15:06.591Z,1001.6
2022-09-20T06:16:07.760Z,1001.7
2022-09-20T06:17:08.611Z,1001.7
2022-09-20T06:18:09.592Z,1001.6
2022-09-20T06:19:11.113Z,1001.7
2022-09-20T06:20:12.631Z,1001.4
2022-09-20T06:21:13.660Z,1001.6
2022-09-20T06:22:14.631Z,1001.4
2022-09-20T06:23:15.638Z,1001.6
2022-09-20T06:24:16.720Z,1001.6
2022-09-20T06:25:17.612Z,1001.6
2022-09-20T06:26:18.731Z,1001.6
2022-09-20T06:27:19.679Z,1001.6
2022-09-20T06:28:20.738Z,1001.6
2022-09-20T06:29:21.672Z,1001.6
2022-09-20T06:30:22.823Z,1001.6
2022-09-20T06:31:23.672Z,1001.6
2022-09-20T06:32:24.617Z,1001.6
2022-09-20T06:33:25.693Z,1001.7
2022-09-20T06:34:26.642Z,1001.7
2022-09-20T06:35:27.697Z,1001.6
2022-09-20T06:36:28.692Z,1001.7
2022-09-20T06:37:29.614Z,1001.7
2022-09-20T06:38:30.701Z,1001.7
2022-09-20T06:39:31.631Z,1001.8
2022-09-20T06:40:32.746Z,1001.7
2022-09-20T06:41:33.671Z,1001.7
2022-09-20T06:42:34.660Z,1001.8
2022-09-20T06:43:35.825Z,1001.8
2022-09-20T06:44:37.711Z,1001.8
2022-09-20T06:45:38.695Z,1001.7
2022-09-20T06:46:39.651Z,1001.7
2022-09-20T06:47:40.690Z,1001.8
2022-09-20T06:48:41.692Z,1001.8
2022-09-20T06:49:42.694Z,1001.8
2022-09-20T06:50:43.651Z,1001.8
2022-09-20T06:51:44.602Z,1001.8
2022-09-20T06:52:45.665Z,1001.8
2022-09-20T06:53:46.719Z,1001.7
2022-09-20T06:54:50.631Z,1001.8
2022-09-20T06:55:51.650Z,1001.8
2022-09-20T06:56:52.631Z,1001.8
2022-09-20T06:57:53.680Z,1001.5
2022-09-20T06:58:54.605Z,1001.7
2022-09-20T06:59:55.684Z,1001.8
2022-09-20T07:00:56.703Z,1001.8
2022-09-20T07:01:57.699Z,1001.8
2022-09-20T07:02:58.712Z,1001.8
2022-09-20T07:03:59.722Z,1001.8
2022-09-20T07:05:00.631Z,1001.9
2022-09-20T07:06:01.693Z,1001.9
2022-09-20T07:07:06.178Z,1001.9
2022-09-20T07:08:03.711Z,1001.9
2022-09-20T07:09:04.691Z,1001.9
2022-09-20T07:10:05.731Z,1001.9
2022-09-20T07:11:06.673Z,1001.9
2022-09-20T07:12:07.674Z,1002
2022-09-20T07:13:08.671Z,1002
2022-09-20T07:14:09.696Z,1002
2022-09-20T07:15:10.731Z,1002
2022-09-20T07:16:11.708Z,1002
2022-09-20T07:17:12.675Z,1002.1
2022-09-20T07:18:13.631Z,1002.1
2022-09-20T07:19:14.737Z,1002.1
2022-09-20T07:20:18.428Z,1002.1
2022-09-20T07:21:16.630Z,1002.1
2022-09-20T07:22:17.643Z,1002.1
2022-09-20T07:23:18.773Z,1002.1
2022-09-20T07:24:20.654Z,1002.2
2022-09-20T07:25:21.651Z,1002.2
2022-09-20T07:26:22.711Z,1002.2
2022-09-20T07:27:26.415Z,1002.2
2022-09-20T07:28:24.591Z,1002.2
2022-09-20T07:29:25.733Z,1002.1
2022-09-20T07:30:26.694Z,1002.2
2022-09-20T07:31:27.788Z,1002.2
2022-09-20T07:32:28.711Z,1002.2
2022-09-20T07:33:29.672Z,1002.2
2022-09-20T07:34:30.653Z,1002.3
2022-09-20T07:35:31.631Z,1002.2
2022-09-20T07:36:32.731Z,1002.3
2022-09-20T07:37:36.935Z,1002.3
2022-09-20T07:38:34.660Z,1002.3
2022-09-20T07:39:35.686Z,1002.3
2022-09-20T07:40:36.758Z,1002.4
2022-09-20T07:41:37.773Z,1002.3
2022-09-20T07:42:38.753Z,1002.3
2022-09-20T07:43:39.691Z,1002.3
2022-09-20T07:44:40.718Z,1002.3
2022-09-20T07:45:41.776Z,1002.3
2022-09-20T07:46:42.753Z,1002.3
2022-09-20T07:47:43.712Z,1002.3
2022-09-20T07:48:44.661Z,1002.3
2022-09-20T07:49:45.647Z,1002.3
2022-09-20T07:50:46.691Z,1002.3
2022-09-20T07:51:47.728Z,1002.3
2022-09-20T07:52:48.721Z,1002.3
2022-09-20T07:53:49.691Z,1002.3
2022-09-20T07:54:50.692Z,1002.3
2022-09-20T07:55:51.713Z,1002.3
2022-09-20T07:56:52.711Z,1002.3
2022-09-20T07:57:53.711Z,1002.4
2022-09-20T07:58:54.651Z,1002.4
2022-09-20T07:59:55.751Z,1002.4
2022-09-20T08:00:56.784Z,1002.4
2022-09-20T08:01:57.764Z,1002.5
2022-09-20T08:02:58.760Z,1002.4
2022-09-20T08:03:59.691Z,1002.4
2022-09-20T08:05:00.734Z,1002.4
2022-09-20T08:06:01.772Z,1002.4
2022-09-20T08:07:02.884Z,1002.4
2022-09-20T08:08:04.711Z,1002.4
2022-09-20T08:09:09.024Z,1002.4
2022-09-20T08:10:07.758Z,1002.4
2022-09-20T08:11:08.672Z,1002.4
2022-09-20T08:14:11.771Z,1002.5
2022-09-20T08:15:12.866Z,1002.5
2022-09-20T08:16:14.727Z,1002.5
2022-09-20T08:17:15.672Z,1002.5
2022-09-20T08:18:16.691Z,1002.5
2022-09-20T08:19:17.673Z,1002.5
2022-09-20T08:20:18.771Z,1002.5
2022-09-20T08:21:19.732Z,1002.5
2022-09-20T08:22:20.691Z,1002.5
2022-09-20T08:23:23.598Z,1002.5
2022-09-20T08:24:22.671Z,1002.5
2022-09-20T08:25:23.732Z,1002.5
2022-09-20T08:26:24.705Z,1002.5
2022-09-20T08:27:25.747Z,1002.4
2022-09-20T08:28:26.732Z,1002.4
2022-09-20T08:29:27.731Z,1002.4
2022-09-20T08:30:28.755Z,1002.4
2022-09-20T08:31:29.898Z,1002.3
2022-09-20T08:32:30.751Z,1002.3
2022-09-20T08:33:31.760Z,1002.3
2022-09-20T08:34:32.752Z,1002.3
2022-09-20T08:35:38.026Z,1002.4
2022-09-20T08:36:36.577Z,1002.3
2022-09-20T08:37:35.656Z,1002.4
2022-09-20T08:40:38.872Z,1002.6
2022-09-20T08:41:40.791Z,1002.5
2022-09-20T08:42:44.539Z,1002.5
2022-09-20T08:43:45.433Z,1002.1
2022-09-20T08:44:46.759Z,1002.4
2022-09-20T08:45:44.775Z,1002.5
2022-09-20T08:46:45.732Z,1002.5
2022-09-20T08:47:46.771Z,1002.4
2022-09-20T08:48:47.673Z,1002.4
2022-09-20T08:49:48.813Z,1002.4
2022-09-20T08:50:50.692Z,1002.5
2022-09-20T08:51:51.671Z,1002.5
2022-09-20T08:52:52.680Z,1002.5
2022-09-20T08:53:53.838Z,1002.5
2022-09-20T08:54:54.719Z,1002.5
2022-09-20T08:55:55.790Z,1002.6
2022-09-20T08:56:56.771Z,1002.6
2022-09-20T08:57:57.738Z,1002.5
2022-09-20T08:58:58.752Z,1002.6
2022-09-20T08:59:59.805Z,1002.6
2022-09-20T09:01:00.841Z,1002.6
2022-09-20T09:02:01.957Z,1002.6
2022-09-20T09:03:03.713Z,1002.6
2022-09-20T09:04:04.766Z,1002.6
2022-09-20T09:05:05.771Z,1002.6
2022-09-20T09:06:11.230Z,1002.6
2022-09-20T09:07:07.852Z,1002.6
2022-09-20T09:08:08.735Z,1002.6
2022-09-20T09:09:09.751Z,1002.6
2022-09-20T09:10:10.694Z,1002.6
2022-09-20T09:11:11.791Z,1002.6
2022-09-20T09:12:12.792Z,1002.6
2022-09-20T09:13:13.751Z,1002.5
2022-09-20T09:14:14.775Z,1002.5
2022-09-20T09:15:17.488Z,1002.5
2022-09-20T09:16:22.549Z,1002.5
2022-09-20T09:17:17.779Z,1002.5
2022-09-20T09:18:18.973Z,1002.6
2022-09-20T09:19:20.771Z,1002.6
2022-09-20T09:20:21.776Z,1002.7
2022-09-20T09:21:22.730Z,1002.6
2022-09-20T09:22:23.772Z,1002.7
2022-09-20T09:23:24.738Z,1002.7
2022-09-20T09:24:25.711Z,1002.7
2022-09-20T09:25:26.840Z,1002.7
2022-09-20T09:26:27.790Z,1002.8
2022-09-20T09:27:28.771Z,1002.7
2022-09-20T09:28:29.717Z,1002.8
2022-09-20T09:29:34.710Z,1002.8
2022-09-20T09:30:31.772Z,1002.8
2022-09-20T09:31:32.903Z,1002.7
2022-09-20T09:32:33.711Z,1002.8
2022-09-20T09:33:34.752Z,1002.8
2022-09-20T09:34:35.811Z,1002.7
2022-09-20T09:35:36.813Z,1002.8
2022-09-20T09:36:37.772Z,1002.7
2022-09-20T09:37:38.831Z,1002.8
2022-09-20T09:38:39.872Z,1002.7
2022-09-20T09:39:41.821Z,1002.7
2022-09-20T09:40:42.782Z,1002.7
2022-09-20T09:41:43.685Z,1002.8
2022-09-20T09:42:44.772Z,1002.8
2022-09-20T09:43:45.751Z,1002.8
2022-09-20T09:44:46.751Z,1002.9
2022-09-20T09:45:47.796Z,1002.8
2022-09-20T09:46:48.860Z,1002.7
2022-09-20T09:47:49.753Z,1002.8
2022-09-20T09:48:50.811Z,1002.8
2022-09-20T09:49:52.495Z,1002.7
2022-09-20T09:50:52.752Z,1002.8
2022-09-20T09:51:53.740Z,1002.8
2022-09-20T09:52:54.711Z,1002.8
2022-09-20T09:53:55.734Z,1002.8
2022-09-20T09:54:56.831Z,1002.7
2022-09-20T09:55:57.759Z,1002.8
2022-09-20T09:56:58.831Z,1002.9
2022-09-20T09:57:59.731Z,1002.9
2022-09-20T09:59:00.791Z,1002.9
2022-09-20T10:00:05.035Z,1002.9
2022-09-20T10:01:03.849Z,1002.9
2022-09-20T10:02:04.790Z,1002.9
2022-09-20T10:03:05.852Z,1002.9
2022-09-20T10:04:06.929Z,1002.6
2022-09-20T10:05:08.758Z,1002.8
2022-09-20T10:06:09.713Z,1002.8
2022-09-20T10:07:10.712Z,1002.8
2022-09-20T10:08:11.831Z,1002.8
2022-09-20T10:09:12.779Z,1002.8
2022-09-20T10:10:13.933Z,1002.9
2022-09-20T10:11:14.771Z,1002.8
2022-09-20T10:12:15.771Z,1002.8
2022-09-20T10:13:16.839Z,1002.9
2022-09-20T10:14:17.850Z,1002.9
2022-09-20T10:15:18.853Z,1002.9
2022-09-20T10:16:19.887Z,1002.9
2022-09-20T10:17:23.457Z,1002.9
2022-09-20T10:18:24.851Z,1002.8
2022-09-20T10:19:25.754Z,1002.8
2022-09-20T10:20:26.773Z,1002.8
2022-09-20T10:21:27.751Z,1002.2
2022-09-20T10:22:28.752Z,1002.7
2022-09-20T10:23:51.799Z,1002.8
2022-09-20T10:24:30.780Z,1002.8
2022-09-20T10:25:31.853Z,1002.9
2022-09-20T10:26:32.778Z,1002.8
2022-09-20T10:27:43.571Z,1002.9
2022-09-20T10:28:44.735Z,1002.8
2022-09-20T10:29:45.792Z,1002.8
2022-09-20T10:30:46.921Z,1002.8
2022-09-20T10:31:48.800Z,1002.9
2022-09-20T10:32:50.836Z,1002.9
2022-09-20T10:33:51.811Z,1002.9
2022-09-20T10:34:52.843Z,1002.9
2022-09-20T10:35:53.752Z,1002.9
2022-09-20T10:36:55.231Z,1002.9
2022-09-20T10:37:56.800Z,1002.9
2022-09-20T10:38:57.779Z,1002.9
2022-09-20T10:39:58.918Z,1002.9
2022-09-20T10:40:59.813Z,1002.9
2022-09-20T10:42:00.900Z,1002.9
2022-09-20T10:43:01.980Z,1002.9
2022-09-20T10:44:05.469Z,1002.9
2022-09-20T10:45:05.811Z,1002.9
2022-09-20T10:46:34.104Z,1002.9
2022-09-20T10:47:07.790Z,1002.9
2022-09-20T10:48:08.773Z,1002.8
2022-09-20T10:49:09.836Z,1002.8
2022-09-20T10:50:10.747Z,1002.8
2022-09-20T10:51:11.806Z,1002.8
2022-09-20T10:52:12.773Z,1002.8
2022-09-20T10:53:13.774Z,1002.9
2022-09-20T10:54:14.792Z,1002.8
2022-09-20T10:55:15.810Z,1002.9
2022-09-20T10:56:17.824Z,1002.9
2022-09-20T10:57:19.771Z,1002.9
2022-09-20T10:58:20.792Z,1002.9
2022-09-20T10:59:21.791Z,1002.9
2022-09-20T11:00:22.818Z,1002.9
2022-09-20T11:01:24.008Z,1002.9
2022-09-20T11:02:25.803Z,1002.8
2022-09-20T11:03:26.851Z,1002.9
2022-09-20T11:04:27.811Z,1002.8
2022-09-20T11:05:28.832Z,1002.8
2022-09-20T11:06:29.831Z,1002.8
2022-09-20T11:07:30.759Z,1002.8
2022-09-20T11:08:31.776Z,1002.8
2022-09-20T11:09:32.794Z,1002.8
2022-09-20T11:10:33.804Z,1002.8
2022-09-20T11:11:34.839Z,1002.9
2022-09-20T11:12:35.771Z,1002.9
2022-09-20T11:13:36.792Z,1002.9
2022-09-20T11:14:37.810Z,1002.9
2022-09-20T11:15:38.958Z,1002.9
2022-09-20T11:16:40.859Z,1002.9
2022-09-20T11:17:41.872Z,1002.9
2022-09-20T11:18:42.807Z,1002.9
2022-09-20T11:19:43.831Z,1002.3
2022-09-20T11:20:44.813Z,1002.8
2022-09-20T11:21:45.852Z,1002.9
2022-09-20T11:22:46.860Z,1002.9
2022-09-20T11:23:47.791Z,1002.9
2022-09-20T11:24:48.804Z,1002.9
2022-09-20T11:25:49.768Z,1002.8
2022-09-20T11:26:50.779Z,1002.8
2022-09-20T11:27:51.751Z,1002.8
2022-09-20T11:28:52.831Z,1002.8
2022-09-20T11:29:53.831Z,1002.8
2022-09-20T11:30:54.782Z,1002.2
2022-09-20T11:31:55.970Z,1002.5
2022-09-20T11:32:56.899Z,1002.6
2022-09-20T11:33:57.875Z,1002.7
2022-09-20T11:34:58.911Z,1002.7
2022-09-20T11:35:59.794Z,1002.8
2022-09-20T11:37:00.911Z,1002.8
2022-09-20T11:38:02.831Z,1002.8
2022-09-20T11:39:03.862Z,1002.8
2022-09-20T11:40:04.868Z,1002.8
2022-09-20T11:41:05.963Z,1002.8
2022-09-20T11:42:06.894Z,1002.5
2022-09-20T11:43:07.831Z,1002.7
2022-09-20T11:44:08.802Z,1002.8
2022-09-20T11:45:09.871Z,1002.8
2022-09-20T11:46:10.927Z,1002.8
2022-09-20T11:47:11.821Z,1002.9
2022-09-20T11:48:12.811Z,1002.9
2022-09-20T11:49:13.875Z,1003
2022-09-20T11:50:14.901Z,1002.9
2022-09-20T11:51:15.831Z,1002.9
2022-09-20T11:52:16.823Z,1002.9
2022-09-20T11:53:17.798Z,1003
2022-09-20T11:54:19.851Z,1003
2022-09-20T11:55:20.952Z,1003
2022-09-20T11:56:21.760Z,1003.1
2022-09-20T11:57:22.853Z,1003.1
2022-09-20T11:58:23.792Z,1003.1
2022-09-20T11:59:24.811Z,1003
2022-09-20T12:00:25.811Z,1003
2022-09-20T12:01:28.390Z,1003.1
2022-09-20T12:02:28.891Z,1003
2022-09-20T12:03:29.864Z,1003
2022-09-20T12:04:33.531Z,1003
2022-09-20T12:05:31.790Z,1003
2022-09-20T12:06:32.811Z,1003
2022-09-20T12:07:33.851Z,1003
2022-09-20T12:08:34.813Z,1003
2022-09-20T12:09:35.807Z,1003
2022-09-20T12:10:36.851Z,1003.1
2022-09-20T12:11:37.891Z,1003.1
2022-09-20T12:12:38.991Z,1003
2022-09-20T12:13:40.880Z,1003.1
2022-09-20T12:14:41.899Z,1003.1
2022-09-20T12:15:42.838Z,1003.1
2022-09-20T12:16:43.956Z,1003
2022-09-20T12:17:44.893Z,1003.1
2022-09-20T12:18:45.832Z,1003
2022-09-20T12:19:46.876Z,1003
2022-09-20T12:20:47.851Z,1003
2022-09-20T12:21:49.364Z,1003
2022-09-20T12:22:49.811Z,1003.1
2022-09-20T12:23:50.878Z,1003
2022-09-20T12:24:51.891Z,1003
2022-09-20T12:25:52.813Z,1003
2022-09-20T12:26:53.871Z,1002.9
2022-09-20T12:27:54.812Z,1002.9
2022-09-20T12:28:56.069Z,1002.8
2022-09-20T12:29:57.931Z,1002.8
2022-09-20T12:30:58.896Z,1002.8
2022-09-20T12:31:59.935Z,1002.8
2022-09-20T12:33:00.942Z,1002.8
2022-09-20T12:34:02.208Z,1002.8
2022-09-20T12:35:03.844Z,1002.7
2022-09-20T12:36:04.972Z,1002.7
2022-09-20T12:37:05.818Z,1002.8
2022-09-20T12:38:06.859Z,1002.7
2022-09-20T12:39:07.823Z,1002.8
2022-09-20T12:40:08.974Z,1002.8
2022-09-20T12:41:09.800Z,1002.7
2022-09-20T12:42:10.847Z,1002.7
2022-09-20T12:43:11.851Z,1002.7
2022-09-20T12:44:12.872Z,1002.7
2022-09-20T12:45:13.894Z,1002.7
2022-09-20T12:46:14.900Z,1002.8
2022-09-20T12:47:15.872Z,1002.8
2022-09-20T12:48:16.832Z,1002.8
2022-09-20T12:49:17.812Z,1002.9
2022-09-20T12:50:18.963Z,1002.8
2022-09-20T12:51:19.892Z,1002.8
2022-09-20T12:52:21.824Z,1002.8
2022-09-20T12:53:22.813Z,1002.9
2022-09-20T12:54:23.782Z,1002.9
2022-09-20T12:55:24.815Z,1002.9
2022-09-20T12:56:25.831Z,1003